Terminal Aerodrome Forecast
Issued by NWS Amarillo, TX

Home | Current Version | Previous Version | Text Only | Print | Product List | Glossary On
Versions: 1 2 3 4 5 6 7 8 9 10 11 12 13 14 15 16 17
847
FTUS44 KAMA 300049 AAA
TAFAMA
TAF AMD
KAMA 300049Z 3001/3024 11018G28KT P6SM SCT060 OVC110
      TEMPO 3001/3004 5SM -TSRA BR OVC040CB
     FM300800 14011KT P6SM SCT090 BKN200
     FM301400 18014KT P6SM SCT060 BKN200=

USA.gov is the U.S. government's official web portal to all federal, state and local government web resources and services.